Corpus Christi Jet Center

SKYE FBO - AIRPORT SERVICES
McCampbell-Porter Airport KTFP
Call Us 24/7: (361) 758-2000
KTFP - McCampbell-Porter Airport
Updated: Wed, 14-Nov-2018 10:15am PST
Clear
Clear
 Wind from N
Wind: N 7 mph , 11 km/h, Gust: 17 mph , 28 km/h
Temperature: 52°F , 11°C
Dew Point: 25°F , -4°C
Humidity: 35%
Barometer: 30.49 inHg , 1032.5 hPa
Clouds: Clear
Visibility: 10 miles , 16 km
2018/11/14 18:15 KTFP 141815Z AUTO 36006G15KT 10SM CLR 11/M04 A3049 RMK AO2 T01091042 PNO

Location

Skye FBO - Airport Services
McCampbell-Porter Airport KTFP
3141 FM 3512
Aransas Pass, TX 78336-9728
(361) 758-2000
2 miles N of Ingleside, TX
Only 15 min from downtown Corpus Christi 2 miles N of Ingleside, Texas and only 15 minutes from downtown Corpus Christi, Texas

(click to enlarge)

Skyview Aviation BBB Business Review

King Air B200 Available Immediately

Call for a quote.
361-758-2000

Click to enlarge:  
King Air Exterior King Air Interior